createdAt,value
2022-09-06T00:01:54.824Z,24.80
2022-09-06T00:04:25.229Z,24.80
2022-09-06T00:06:55.666Z,24.70
2022-09-06T00:09:26.203Z,24.70
2022-09-06T00:11:57.653Z,24.80
2022-09-06T00:14:28.883Z,24.70
2022-09-06T00:16:59.591Z,24.70
2022-09-06T00:19:29.894Z,24.70
2022-09-06T00:22:00.201Z,24.80
2022-09-06T00:24:31.078Z,24.80
2022-09-06T00:27:01.337Z,24.80
2022-09-06T00:29:31.853Z,24.90
2022-09-06T00:32:02.522Z,24.90
2022-09-06T00:34:33.061Z,24.80
2022-09-06T00:37:03.380Z,24.80
2022-09-06T00:39:33.759Z,24.90
2022-09-06T00:42:04.018Z,24.90
2022-09-06T00:44:37.859Z,24.90
2022-09-06T00:47:09.076Z,24.90
2022-09-06T00:49:45.742Z,24.90
2022-09-06T00:52:19.356Z,24.90
2022-09-06T00:54:51.010Z,24.90
2022-09-06T00:57:21.662Z,24.90
2022-09-06T00:59:52.885Z,24.90
2022-09-06T01:02:23.951Z,25.00
2022-09-06T01:04:55.051Z,25.00
2022-09-06T01:07:44.970Z,25.10
2022-09-06T01:10:26.544Z,25.10
2022-09-06T01:13:29.029Z,25.20
2022-09-06T01:16:24.444Z,25.30
2022-09-06T01:19:25.528Z,25.50
2022-09-06T01:22:21.978Z,25.60
2022-09-06T01:25:21.013Z,25.70
2022-09-06T01:28:27.392Z,25.60
2022-09-06T01:31:13.034Z,25.60
2022-09-06T01:34:17.515Z,25.60
2022-09-06T01:37:10.277Z,25.60
2022-09-06T01:39:42.581Z,25.60
2022-09-06T01:42:22.650Z,25.60
2022-09-06T01:45:00.612Z,25.60
2022-09-06T01:48:00.964Z,25.70
2022-09-06T01:50:56.174Z,25.80
2022-09-06T01:53:49.367Z,25.90
2022-09-06T01:56:52.915Z,25.80
2022-09-06T01:59:48.287Z,25.90
2022-09-06T02:02:43.741Z,25.80
2022-09-06T02:05:44.838Z,25.90
2022-09-06T02:08:28.187Z,25.90
2022-09-06T02:11:06.118Z,25.80
2022-09-06T02:13:42.130Z,26.00
2022-09-06T02:16:15.194Z,26.00
2022-09-06T02:19:01.042Z,26.20
2022-09-06T02:21:36.658Z,26.40
2022-09-06T02:24:11.354Z,26.50
2022-09-06T02:26:46.177Z,26.60
2022-09-06T02:29:18.244Z,26.70
2022-09-06T02:31:53.602Z,26.90
2022-09-06T02:34:24.845Z,27.00
2022-09-06T02:36:55.342Z,27.00
2022-09-06T02:39:26.941Z,27.00
2022-09-06T02:41:57.603Z,27.20
2022-09-06T02:44:28.168Z,27.30
2022-09-06T02:46:58.476Z,27.50
2022-09-06T02:49:28.766Z,27.50
2022-09-06T02:51:59.453Z,27.60
2022-09-06T02:54:30.015Z,27.60
2022-09-06T02:57:00.429Z,27.50
2022-09-06T02:59:30.875Z,27.50
2022-09-06T03:02:02.134Z,27.60
2022-09-06T03:04:32.718Z,27.60
2022-09-06T03:07:03.106Z,27.60
2022-09-06T03:09:34.084Z,27.70
2022-09-06T03:12:04.534Z,27.60
2022-09-06T03:14:34.911Z,27.60
2022-09-06T03:17:06.690Z,27.70
2022-09-06T03:19:37.213Z,27.80
2022-09-06T03:22:07.538Z,27.80
2022-09-06T03:24:37.891Z,27.90
2022-09-06T03:27:08.203Z,28.00
2022-09-06T03:29:38.676Z,28.20
2022-09-06T03:32:08.983Z,28.40
2022-09-06T03:34:39.279Z,28.60
2022-09-06T03:37:10.045Z,28.80
2022-09-06T03:39:40.399Z,28.60
2022-09-06T03:42:11.000Z,28.60
2022-09-06T03:44:41.388Z,28.50
2022-09-06T03:47:11.843Z,28.40
2022-09-06T03:49:42.149Z,28.40
2022-09-06T03:52:12.487Z,28.60
2022-09-06T03:54:43.720Z,28.70
2022-09-06T03:57:14.051Z,28.90
2022-09-06T03:59:45.107Z,29.10
2022-09-06T04:02:15.729Z,29.20
2022-09-06T04:04:46.509Z,29.30
2022-09-06T04:07:16.974Z,29.40
2022-09-06T04:09:47.416Z,29.40
2022-09-06T04:12:17.837Z,29.40
2022-09-06T04:14:48.258Z,29.40
2022-09-06T04:17:18.591Z,29.40
2022-09-06T04:19:49.490Z,29.30
2022-09-06T04:22:19.770Z,29.20
2022-09-06T04:24:50.707Z,29.20
2022-09-06T04:27:21.143Z,29.20
2022-09-06T04:29:51.706Z,29.30
2022-09-06T04:32:22.061Z,29.30
2022-09-06T04:34:52.605Z,29.30
2022-09-06T04:37:23.015Z,29.50
2022-09-06T04:39:53.723Z,29.50
2022-09-06T04:42:24.137Z,29.40
2022-09-06T04:44:54.590Z,29.40
2022-09-06T04:47:25.728Z,29.60
2022-09-06T04:50:00.200Z,29.40
2022-09-06T04:52:31.189Z,29.20
2022-09-06T04:55:01.751Z,29.10
2022-09-06T04:57:32.046Z,29.30
2022-09-06T05:00:02.583Z,29.40
2022-09-06T05:02:33.153Z,29.60
2022-09-06T05:05:04.651Z,29.70
2022-09-06T05:07:35.163Z,29.90
2022-09-06T05:10:06.266Z,29.70
2022-09-06T05:12:39.829Z,29.80
2022-09-06T05:15:14.446Z,30.10
2022-09-06T05:17:45.169Z,30.10
2022-09-06T05:20:16.390Z,30.20
2022-09-06T05:22:54.331Z,30.10
2022-09-06T05:25:24.930Z,30.10
2022-09-06T05:27:55.650Z,30.10
2022-09-06T05:30:26.533Z,30.10
2022-09-06T05:33:00.544Z,30.20
2022-09-06T05:35:31.306Z,30.40
2022-09-06T05:38:02.089Z,30.40
2022-09-06T05:40:35.088Z,30.50
2022-09-06T05:43:05.485Z,30.80
2022-09-06T05:45:36.519Z,31.00
2022-09-06T05:48:07.003Z,31.10
2022-09-06T05:50:37.605Z,31.30
2022-09-06T05:53:07.917Z,31.40
2022-09-06T05:55:42.309Z,31.40
2022-09-06T05:58:13.629Z,31.40
2022-09-06T06:00:44.741Z,31.10
2022-09-06T06:03:15.666Z,30.70
2022-09-06T06:05:50.751Z,30.70
2022-09-06T06:08:21.353Z,30.60
2022-09-06T06:29:19.491Z,29.00
2022-09-06T06:31:51.165Z,29.80
2022-09-06T06:34:24.032Z,30.40
2022-09-06T06:36:54.852Z,30.90
2022-09-06T06:39:25.662Z,31.40
2022-09-06T06:41:56.652Z,31.60
2022-09-06T06:44:31.066Z,31.80
2022-09-06T06:47:04.129Z,31.90
2022-09-06T06:49:34.833Z,32.00
2022-09-06T06:52:05.221Z,31.90
2022-09-06T06:54:35.676Z,31.90
2022-09-06T06:57:06.608Z,32.00
2022-09-06T06:59:37.219Z,32.00
2022-09-06T07:02:08.042Z,31.80
2022-09-06T07:04:38.614Z,31.90
2022-09-06T07:12:51.152Z,32.00
2022-09-06T07:15:22.160Z,32.10
2022-09-06T07:17:52.448Z,32.10
2022-09-06T07:20:23.716Z,31.90
2022-09-06T07:25:59.647Z,32.10
2022-09-06T07:28:30.007Z,32.10
2022-09-06T07:31:01.023Z,32.10
2022-09-06T07:33:32.443Z,32.10
2022-09-06T07:36:04.925Z,32.20
2022-09-06T07:38:36.936Z,32.20
2022-09-06T07:41:10.838Z,32.20
2022-09-06T07:43:41.354Z,32.20
2022-09-06T07:46:47.521Z,32.20
2022-09-06T07:49:18.094Z,32.10
2022-09-06T07:51:48.533Z,32.20
2022-09-06T07:54:39.019Z,32.00
2022-09-06T07:57:10.683Z,31.90
2022-09-06T07:59:48.562Z,31.90
2022-09-06T08:02:20.057Z,32.00
2022-09-06T08:04:53.972Z,32.00
2022-09-06T08:07:39.751Z,32.10
2022-09-06T08:10:12.010Z,32.20
2022-09-06T08:12:42.872Z,32.20
2022-09-06T08:15:13.649Z,32.30
2022-09-06T08:17:43.833Z,32.30
2022-09-06T08:20:14.843Z,32.20
2022-09-06T08:22:45.266Z,31.90
2022-09-06T08:25:19.425Z,31.70
2022-09-06T08:27:49.734Z,31.50
2022-09-06T08:30:20.325Z,31.40
2022-09-06T08:32:50.941Z,31.30
2022-09-06T08:35:21.459Z,31.20
2022-09-06T08:37:51.828Z,31.30
2022-09-06T08:40:27.379Z,31.20
2022-09-06T08:42:58.608Z,31.00
2022-09-06T08:45:30.666Z,30.90
2022-09-06T08:48:01.396Z,31.10
2022-09-06T08:50:32.230Z,31.20
2022-09-06T08:53:20.072Z,31.20
2022-09-06T08:56:15.663Z,31.10
2022-09-06T08:59:09.377Z,30.90
2022-09-06T09:02:06.886Z,30.90
2022-09-06T09:04:39.465Z,30.90
2022-09-06T09:07:37.298Z,31.10
2022-09-06T09:10:14.900Z,31.00
2022-09-06T09:12:49.864Z,31.10
2022-09-06T09:15:22.717Z,31.00
2022-09-06T09:17:55.173Z,30.80
2022-09-06T09:20:27.014Z,30.70
2022-09-06T09:22:59.100Z,30.80
2022-09-06T09:25:29.595Z,30.90
2022-09-06T09:28:00.484Z,30.90
2022-09-06T09:30:51.568Z,30.90
2022-09-06T09:33:41.367Z,31.00
2022-09-06T09:36:16.081Z,31.20
2022-09-06T09:38:51.440Z,31.30
2022-09-06T09:41:35.503Z,31.40
2022-09-06T09:44:10.607Z,31.20
2022-09-06T09:51:08.981Z,31.30
2022-09-06T09:53:55.099Z,31.10
2022-09-06T09:56:32.351Z,31.10
2022-09-06T09:59:03.877Z,31.10
2022-09-06T10:01:35.894Z,31.00
2022-09-06T10:07:22.751Z,30.60
2022-09-06T10:10:10.025Z,30.50
2022-09-06T10:12:42.431Z,30.50
2022-09-06T10:15:15.060Z,30.50
2022-09-06T10:17:57.631Z,30.50
2022-09-06T10:20:40.894Z,30.60
2022-09-06T10:30:11.345Z,29.90
2022-09-06T10:40:52.541Z,30.20
2022-09-06T10:43:23.874Z,30.10
2022-09-06T10:46:08.346Z,30.00
2022-09-06T10:48:47.497Z,30.00
2022-09-06T10:51:40.220Z,29.80
2022-09-06T10:54:14.109Z,29.70
2022-09-06T10:56:51.823Z,29.60
2022-09-06T11:02:20.592Z,29.50
2022-09-06T11:10:50.591Z,28.90
2022-09-06T11:13:23.092Z,28.70
2022-09-06T11:16:04.883Z,28.60
2022-09-06T11:18:54.716Z,28.60
2022-09-06T11:21:58.459Z,28.60
2022-09-06T11:24:56.262Z,28.50
2022-09-06T11:27:43.713Z,28.50
2022-09-06T11:30:19.369Z,28.30
2022-09-06T11:32:52.976Z,28.10
2022-09-06T11:35:32.260Z,27.80
2022-09-06T11:38:31.265Z,27.70
2022-09-06T11:41:10.402Z,27.70
2022-09-06T11:43:53.805Z,27.60
2022-09-06T11:46:55.251Z,27.60
2022-09-06T11:49:35.042Z,27.50
2022-09-06T11:52:05.652Z,27.40
2022-09-06T11:54:47.375Z,27.40
2022-09-06T11:57:24.414Z,27.40
2022-09-06T12:00:04.307Z,27.20
2022-09-06T12:02:43.169Z,27.00
2022-09-06T12:05:19.554Z,27.00
2022-09-06T12:08:27.418Z,26.90
2022-09-06T12:11:06.580Z,26.90
2022-09-06T12:13:45.479Z,26.90
2022-09-06T12:16:17.269Z,27.00
2022-09-06T12:18:58.331Z,26.90
2022-09-06T12:21:55.861Z,26.80
2022-09-06T12:25:01.768Z,26.80
2022-09-06T12:27:35.937Z,26.70
2022-09-06T12:30:11.818Z,26.70
2022-09-06T12:32:50.791Z,26.70
2022-09-06T12:38:19.276Z,26.70
2022-09-06T12:40:53.743Z,26.60
2022-09-06T12:43:24.891Z,26.60
2022-09-06T12:45:55.872Z,26.60
2022-09-06T12:48:33.473Z,26.60
2022-09-06T12:51:10.229Z,26.60
2022-09-06T12:53:41.657Z,26.50
2022-09-06T12:56:15.065Z,26.50
2022-09-06T12:58:46.212Z,26.50
2022-09-06T13:01:25.942Z,26.60
2022-09-06T13:04:00.587Z,26.50
2022-09-06T13:06:32.467Z,26.50
2022-09-06T13:09:03.939Z,26.50
2022-09-06T13:11:40.555Z,26.50
2022-09-06T13:14:24.080Z,26.50
2022-09-06T13:16:59.214Z,26.50
2022-09-06T13:19:43.116Z,26.50
2022-09-06T13:22:14.154Z,26.50
2022-09-06T13:24:49.390Z,26.50
2022-09-06T13:27:39.091Z,26.50
2022-09-06T13:30:12.885Z,26.50
2022-09-06T13:32:50.584Z,26.50
2022-09-06T13:35:40.608Z,26.60
2022-09-06T13:38:37.078Z,26.60
2022-09-06T13:41:12.774Z,26.60
2022-09-06T13:43:48.034Z,26.60
2022-09-06T13:46:18.507Z,26.60
2022-09-06T13:48:48.755Z,26.60
2022-09-06T13:51:20.432Z,26.60
2022-09-06T13:53:51.070Z,26.60
2022-09-06T13:56:21.498Z,26.60
2022-09-06T13:58:51.787Z,26.60
2022-09-06T14:01:22.511Z,26.50
2022-09-06T14:03:54.336Z,26.40
2022-09-06T14:06:25.070Z,26.40
2022-09-06T14:09:07.002Z,26.40
2022-09-06T14:11:38.779Z,26.40
2022-09-06T14:14:09.366Z,26.40
2022-09-06T14:16:40.289Z,26.40
2022-09-06T14:19:10.631Z,26.40
2022-09-06T14:21:41.300Z,26.40
2022-09-06T14:24:12.354Z,26.30
2022-09-06T14:26:42.873Z,26.30
2022-09-06T14:29:13.885Z,26.20
2022-09-06T14:31:44.335Z,26.00
2022-09-06T14:34:14.733Z,25.90
2022-09-06T14:36:45.181Z,25.90
2022-09-06T14:39:15.564Z,25.90
2022-09-06T14:41:46.916Z,25.90
2022-09-06T14:44:17.381Z,26.00
2022-09-06T14:46:49.892Z,26.00
2022-09-06T14:49:20.595Z,26.10
2022-09-06T14:51:51.982Z,26.00
2022-09-06T14:54:26.090Z,26.10
2022-09-06T14:56:59.897Z,26.10
2022-09-06T14:59:30.297Z,26.20
2022-09-06T15:02:00.907Z,26.20
2022-09-06T15:04:31.978Z,26.30
2022-09-06T15:07:02.949Z,26.30
2022-09-06T15:09:33.403Z,26.30
2022-09-06T15:12:03.788Z,26.30
2022-09-06T15:14:34.745Z,26.30
2022-09-06T15:17:07.872Z,26.30
2022-09-06T15:19:40.185Z,26.30
2022-09-06T15:22:10.754Z,26.30
2022-09-06T15:24:42.226Z,26.20
2022-09-06T15:27:12.549Z,26.20
2022-09-06T15:29:43.389Z,26.20
2022-09-06T15:32:13.790Z,26.30
2022-09-06T15:34:44.726Z,26.30
2022-09-06T15:37:15.080Z,26.30
2022-09-06T15:39:45.474Z,26.30
2022-09-06T15:42:16.034Z,26.20
2022-09-06T15:44:46.389Z,26.20
2022-09-06T15:47:16.931Z,26.10
2022-09-06T15:49:47.333Z,26.10
2022-09-06T15:52:17.789Z,26.10
2022-09-06T15:55:02.216Z,26.00
2022-09-06T15:57:32.793Z,26.00
2022-09-06T16:00:03.308Z,26.00
2022-09-06T16:02:33.713Z,26.00
2022-09-06T16:05:04.480Z,25.90
2022-09-06T16:07:35.291Z,26.00
2022-09-06T16:10:06.574Z,26.00
2022-09-06T16:12:36.891Z,26.00
2022-09-06T16:15:07.798Z,26.00
2022-09-06T16:17:38.638Z,25.90
2022-09-06T16:20:09.757Z,25.90
2022-09-06T16:22:40.885Z,25.90
2022-09-06T16:25:11.807Z,25.90
2022-09-06T16:27:42.250Z,25.90
2022-09-06T16:30:13.044Z,25.90
2022-09-06T16:32:43.966Z,25.90
2022-09-06T16:35:14.331Z,25.90
2022-09-06T16:37:44.670Z,25.90
2022-09-06T16:40:15.360Z,25.90
2022-09-06T16:42:46.764Z,25.90
2022-09-06T16:45:17.112Z,25.90
2022-09-06T16:47:49.257Z,25.80
2022-09-06T16:50:20.141Z,25.80
2022-09-06T16:52:52.392Z,25.70
2022-09-06T16:55:22.730Z,25.70
2022-09-06T16:57:52.989Z,25.70
2022-09-06T17:00:23.450Z,25.80
2022-09-06T17:02:53.877Z,25.70
2022-09-06T17:05:24.491Z,25.70
2022-09-06T17:07:54.848Z,25.70
2022-09-06T17:10:25.309Z,25.70
2022-09-06T17:12:56.112Z,25.80
2022-09-06T17:15:26.895Z,25.70
2022-09-06T17:17:57.222Z,25.80
2022-09-06T17:20:27.502Z,25.80
2022-09-06T17:22:57.842Z,25.80
2022-09-06T17:25:29.123Z,25.80
2022-09-06T17:28:00.081Z,25.80
2022-09-06T17:30:31.802Z,25.70
2022-09-06T17:33:02.235Z,25.70
2022-09-06T17:35:34.123Z,25.70
2022-09-06T17:38:04.559Z,25.70
2022-09-06T17:40:34.880Z,25.70
2022-09-06T17:43:07.201Z,25.60
2022-09-06T17:45:45.011Z,25.60
2022-09-06T17:48:15.374Z,25.60
2022-09-06T17:50:46.414Z,25.60
2022-09-06T17:53:17.709Z,25.70
2022-09-06T17:55:48.061Z,25.50
2022-09-06T17:58:18.384Z,25.50
2022-09-06T18:00:48.816Z,25.50
2022-09-06T18:03:19.443Z,25.50
2022-09-06T18:05:49.868Z,25.50
2022-09-06T18:08:20.198Z,25.40
2022-09-06T18:10:50.638Z,25.40
2022-09-06T18:13:20.886Z,25.30
2022-09-06T18:15:52.567Z,25.40
2022-09-06T18:18:23.101Z,25.40
2022-09-06T18:21:28.994Z,25.50
2022-09-06T18:24:00.304Z,25.50
2022-09-06T18:26:30.925Z,25.50
2022-09-06T18:29:01.495Z,25.50
2022-09-06T18:31:31.943Z,25.60
2022-09-06T18:34:03.233Z,25.60
2022-09-06T18:36:33.986Z,25.50
2022-09-06T18:39:06.880Z,25.60
2022-09-06T18:41:51.095Z,25.60
2022-09-06T18:44:21.503Z,25.60
2022-09-06T18:46:52.511Z,25.60
2022-09-06T18:49:22.872Z,25.60
2022-09-06T18:51:53.444Z,25.70
2022-09-06T18:54:24.059Z,25.60
2022-09-06T18:56:54.370Z,25.70
2022-09-06T18:59:26.207Z,25.60
2022-09-06T19:01:56.756Z,25.60
2022-09-06T19:04:27.414Z,25.60
2022-09-06T19:06:57.730Z,25.60
2022-09-06T19:09:27.998Z,25.70
2022-09-06T19:11:58.468Z,25.60
2022-09-06T19:14:29.834Z,25.50
2022-09-06T19:17:00.289Z,25.50
2022-09-06T19:19:30.871Z,25.40
2022-09-06T19:22:01.359Z,25.40
2022-09-06T19:24:31.727Z,25.40
2022-09-06T19:27:02.439Z,25.40
2022-09-06T19:29:34.018Z,25.40
2022-09-06T19:32:05.101Z,25.30
2022-09-06T19:34:36.139Z,25.20
2022-09-06T19:37:06.637Z,25.10
2022-09-06T19:39:37.421Z,25.00
2022-09-06T19:42:08.641Z,24.90
2022-09-06T19:44:39.283Z,24.80
2022-09-06T19:47:09.847Z,24.70
2022-09-06T19:49:40.422Z,24.70
2022-09-06T19:52:12.175Z,24.60
2022-09-06T19:54:42.905Z,24.70
2022-09-06T19:57:13.310Z,24.70
2022-09-06T19:59:43.603Z,24.60
2022-09-06T20:02:13.919Z,24.60
2022-09-06T20:04:44.253Z,24.50
2022-09-06T20:07:14.520Z,24.40
2022-09-06T20:09:47.510Z,24.40
2022-09-06T20:12:19.720Z,24.40
2022-09-06T20:14:50.120Z,24.40
2022-09-06T20:17:33.314Z,24.40
2022-09-06T20:20:04.964Z,24.40
2022-09-06T20:22:35.306Z,24.30
2022-09-06T20:25:05.713Z,24.30
2022-09-06T20:27:35.995Z,24.20
2022-09-06T20:30:06.586Z,24.30
2022-09-06T20:32:36.981Z,24.30
2022-09-06T20:35:07.659Z,24.30
2022-09-06T20:37:40.634Z,24.20
2022-09-06T20:40:11.952Z,24.30
2022-09-06T20:42:44.300Z,24.30
2022-09-06T20:45:15.541Z,24.30
2022-09-06T20:47:45.888Z,24.20
2022-09-06T20:50:16.318Z,24.20
2022-09-06T20:52:46.652Z,24.20
2022-09-06T20:55:17.631Z,24.20
2022-09-06T20:57:50.365Z,24.20
2022-09-06T21:00:20.706Z,24.10
2022-09-06T21:02:50.960Z,24.10
2022-09-06T21:05:21.535Z,24.20
2022-09-06T21:07:51.827Z,24.20
2022-09-06T21:10:22.067Z,24.20
2022-09-06T21:12:52.584Z,24.10
2022-09-06T21:15:22.850Z,24.10
2022-09-06T21:17:53.079Z,24.10
2022-09-06T21:20:23.661Z,24.20
2022-09-06T21:22:53.991Z,24.10
2022-09-06T21:25:24.369Z,24.10
2022-09-06T21:27:55.930Z,24.00
2022-09-06T21:30:27.153Z,24.00
2022-09-06T21:32:57.600Z,24.00
2022-09-06T21:35:27.954Z,23.90
2022-09-06T21:37:58.105Z,23.90
2022-09-06T21:40:28.380Z,24.00
2022-09-06T21:42:58.614Z,24.00
2022-09-06T21:45:28.879Z,24.00
2022-09-06T21:47:59.141Z,24.10
2022-09-06T21:50:29.350Z,24.10
2022-09-06T21:52:59.582Z,24.10
2022-09-06T21:55:30.480Z,24.10
2022-09-06T21:58:00.835Z,24.10
2022-09-06T22:00:31.158Z,24.20
2022-09-06T22:03:01.458Z,24.20
2022-09-06T22:05:31.898Z,24.20
2022-09-06T22:08:02.307Z,24.20
2022-09-06T22:10:32.564Z,24.10
2022-09-06T22:13:02.762Z,24.10
2022-09-06T22:15:33.994Z,24.10
2022-09-06T22:18:04.296Z,24.20
2022-09-06T22:20:34.590Z,24.20
2022-09-06T22:23:10.863Z,24.20
2022-09-06T22:26:01.437Z,24.20
2022-09-06T22:28:31.885Z,24.20
2022-09-06T22:31:02.382Z,24.20
2022-09-06T22:33:32.730Z,24.20
2022-09-06T22:38:52.577Z,24.20
2022-09-06T22:41:22.765Z,24.20
2022-09-06T22:43:53.184Z,24.30
2022-09-06T22:46:24.906Z,24.30
2022-09-06T22:48:55.315Z,24.40
2022-09-06T22:51:25.593Z,24.40
2022-09-06T22:53:55.892Z,24.40
2022-09-06T22:56:26.606Z,24.40
2022-09-06T22:58:56.924Z,24.30
2022-09-06T23:01:27.283Z,24.30
2022-09-06T23:03:57.810Z,24.20
2022-09-06T23:06:30.971Z,24.20
2022-09-06T23:09:02.122Z,24.20
2022-09-06T23:11:34.735Z,24.20
2022-09-06T23:14:07.119Z,24.20
2022-09-06T23:16:37.744Z,24.20
2022-09-06T23:19:08.768Z,24.20
2022-09-06T23:21:39.015Z,24.20
2022-09-06T23:24:09.328Z,24.20
2022-09-06T23:26:40.142Z,24.20
2022-09-06T23:29:10.749Z,24.30
2022-09-06T23:31:41.356Z,24.30
2022-09-06T23:34:11.572Z,24.30
2022-09-06T23:36:42.541Z,24.30
2022-09-06T23:39:13.570Z,24.40
2022-09-06T23:41:43.806Z,24.40
2022-09-06T23:44:13.991Z,24.30
2022-09-06T23:46:44.478Z,24.30
2022-09-06T23:49:14.767Z,24.30
2022-09-06T23:51:45.642Z,24.30
2022-09-06T23:54:16.039Z,24.30
2022-09-06T23:56:46.243Z,24.40
2022-09-06T23:59:16.577Z,24.30
